createdAt,value
2019-05-11T00:00:40.624Z,6.98
2019-05-11T00:05:48.151Z,6.88
2019-05-11T00:10:55.695Z,7.23
2019-05-11T00:16:03.039Z,6.97
2019-05-11T00:21:11.021Z,6.99
2019-05-11T00:26:18.471Z,6.60
2019-05-11T00:31:26.139Z,6.83
2019-05-11T00:36:33.856Z,7.10
2019-05-11T00:41:41.295Z,6.91
2019-05-11T00:46:48.751Z,6.86
2019-05-11T00:51:56.409Z,7.25
2019-05-11T00:57:03.894Z,7.41
2019-05-11T01:02:11.574Z,7.50
2019-05-11T01:07:19.311Z,7.54
2019-05-11T01:12:26.722Z,7.37
2019-05-11T01:17:33.950Z,7.67
2019-05-11T01:22:41.809Z,7.48
2019-05-11T01:27:49.489Z,7.22
2019-05-11T01:32:57.054Z,7.02
2019-05-11T01:38:04.591Z,7.26
2019-05-11T01:43:12.393Z,7.23
2019-05-11T01:48:20.054Z,7.09
2019-05-11T01:53:27.982Z,6.86
2019-05-11T01:58:35.649Z,6.94
2019-05-11T02:03:43.135Z,6.55
2019-05-11T02:08:50.670Z,6.54
2019-05-11T02:13:58.250Z,6.40
2019-05-11T02:19:06.338Z,6.56
2019-05-11T02:24:13.924Z,6.28
2019-05-11T02:29:22.085Z,6.52
2019-05-11T02:34:29.599Z,6.71
2019-05-11T02:39:37.500Z,6.32
2019-05-11T02:44:44.900Z,6.68
2019-05-11T02:49:52.409Z,6.35
2019-05-11T02:54:59.970Z,6.19
2019-05-11T03:00:07.294Z,6.40
2019-05-11T03:05:14.816Z,6.51
2019-05-11T03:10:22.287Z,6.58
2019-05-11T03:15:29.884Z,6.36
2019-05-11T03:20:37.224Z,6.63
2019-05-11T03:25:44.818Z,6.65
2019-05-11T03:30:52.431Z,6.77
2019-05-11T03:36:00.048Z,6.68
2019-05-11T03:41:07.606Z,6.81
2019-05-11T03:46:15.163Z,7.02
2019-05-11T03:51:22.556Z,7.27
2019-05-11T03:56:30.071Z,7.20
2019-05-11T04:01:37.783Z,7.08
2019-05-11T04:06:45.207Z,6.99
2019-05-11T04:11:52.767Z,6.51
2019-05-11T04:17:00.179Z,6.82
2019-05-11T04:22:07.758Z,6.37
2019-05-11T04:27:19.386Z,5.93
2019-05-11T04:32:21.985Z,5.74
2019-05-11T04:37:29.628Z,5.80
2019-05-11T04:42:53.192Z,5.71
2019-05-11T04:47:44.832Z,5.38
2019-05-11T04:52:52.368Z,5.16
2019-05-11T04:57:59.860Z,5.15
2019-05-11T05:03:08.028Z,4.64
2019-05-11T05:08:15.220Z,4.56
2019-05-11T05:13:23.275Z,4.29
2019-05-11T05:18:30.092Z,4.34
2019-05-11T05:23:37.754Z,4.10
2019-05-11T05:28:45.948Z,4.52
2019-05-11T05:33:52.999Z,4.62
2019-05-11T05:39:00.628Z,4.47
2019-05-11T05:44:10.320Z,3.93
2019-05-11T05:49:17.747Z,3.87
2019-05-11T05:54:25.520Z,3.98
2019-05-11T05:59:32.717Z,3.43
2019-05-11T06:04:40.338Z,3.44
2019-05-11T06:09:47.870Z,3.20
2019-05-11T06:14:55.367Z,2.80
2019-05-11T06:20:03.917Z,2.56
2019-05-11T06:25:10.515Z,2.59
2019-05-11T06:30:18.004Z,2.48
2019-05-11T06:35:25.566Z,2.40
2019-05-11T06:40:33.057Z,2.37
2019-05-11T06:45:40.527Z,2.76
2019-05-11T06:50:48.180Z,2.39
2019-05-11T06:55:55.799Z,2.53
2019-05-11T07:01:03.362Z,2.35
2019-05-11T07:06:10.834Z,2.46
2019-05-11T07:11:18.144Z,2.48
2019-05-11T07:16:25.556Z,2.58
2019-05-11T07:21:33.077Z,2.43
2019-05-11T07:26:40.694Z,2.61
2019-05-11T07:31:48.358Z,2.86
2019-05-11T07:36:57.650Z,2.72
2019-05-11T07:42:03.649Z,3.10
2019-05-11T07:47:11.862Z,2.85
2019-05-11T07:52:19.807Z,2.87
2019-05-11T07:57:28.453Z,2.85
2019-05-11T08:02:34.812Z,2.98
2019-05-11T08:07:42.487Z,3.00
2019-05-11T08:12:49.667Z,2.79
2019-05-11T08:17:57.947Z,2.86
2019-05-11T08:23:04.691Z,2.81
2019-05-11T08:28:12.288Z,2.91
2019-05-11T08:33:20.122Z,3.03
2019-05-11T08:38:28.541Z,3.00
2019-05-11T08:43:34.837Z,2.98
2019-05-11T08:48:42.367Z,2.94
2019-05-11T08:53:50.085Z,3.08
2019-05-11T08:58:58.860Z,3.21
2019-05-11T09:04:05.043Z,3.56
2019-05-11T09:09:13.247Z,3.62
2019-05-11T09:14:19.508Z,3.62
2019-05-11T09:19:28.525Z,3.54
2019-05-11T09:24:34.372Z,3.44
2019-05-11T09:29:42.028Z,3.86
2019-05-11T09:34:49.681Z,3.95
2019-05-11T09:39:58.384Z,4.49
2019-05-11T09:45:04.762Z,5.01
2019-05-11T09:50:12.246Z,8.30
2019-05-11T09:55:19.747Z,10.11
2019-05-11T10:00:28.227Z,12.46
2019-05-11T10:05:34.880Z,13.82
2019-05-11T10:10:42.435Z,14.90
2019-05-11T10:16:03.685Z,15.40
2019-05-11T10:20:58.626Z,15.17
2019-05-11T10:26:04.920Z,16.99
2019-05-11T10:31:12.243Z,16.54
2019-05-11T10:36:19.881Z,17.32
2019-05-11T10:41:28.416Z,18.09
2019-05-11T10:46:34.865Z,20.00
2019-05-11T10:51:42.504Z,21.57
2019-05-11T10:56:50.071Z,22.02
2019-05-11T11:01:58.958Z,23.68
2019-05-11T11:07:04.407Z,23.24
2019-05-11T11:12:12.049Z,22.45
2019-05-11T11:17:19.827Z,20.02
2019-05-11T11:22:39.168Z,19.35
2019-05-11T11:27:34.099Z,18.51
2019-05-11T11:32:41.830Z,18.80
2019-05-11T11:37:49.399Z,18.63
2019-05-11T11:42:58.071Z,19.87
2019-05-11T11:48:03.543Z,19.48
2019-05-11T11:53:10.883Z,19.72
2019-05-11T11:58:23.499Z,19.65
2019-05-11T12:03:27.664Z,19.97
2019-05-11T12:08:33.629Z,19.28
2019-05-11T12:13:41.279Z,15.62
2019-05-11T12:18:48.907Z,14.64
2019-05-11T12:23:58.388Z,15.33
2019-05-11T12:29:03.841Z,13.53
2019-05-11T12:34:13.322Z,13.34
2019-05-11T12:39:20.974Z,13.36
2019-05-11T12:44:31.945Z,13.60
2019-05-11T12:49:30.093Z,13.70
2019-05-11T12:54:38.505Z,13.33
2019-05-11T12:59:44.874Z,13.34
2019-05-11T13:04:53.074Z,13.15
2019-05-11T13:10:01.404Z,13.53
2019-05-11T13:15:09.560Z,13.78
2019-05-11T13:20:18.062Z,13.56
2019-05-11T13:25:23.823Z,12.96
2019-05-11T13:30:31.271Z,15.39
2019-05-11T13:35:38.966Z,17.59
2019-05-11T13:40:48.544Z,17.10
2019-05-11T13:45:53.647Z,17.36
2019-05-11T13:51:00.369Z,16.33
2019-05-11T13:56:08.196Z,15.50
2019-05-11T14:01:15.608Z,14.93
2019-05-11T14:06:23.220Z,14.58
2019-05-11T14:11:30.632Z,12.79
2019-05-11T14:16:38.265Z,11.62
2019-05-11T14:21:45.943Z,9.08
2019-05-11T14:26:53.438Z,8.28
2019-05-11T14:32:01.135Z,7.98
2019-05-11T14:37:08.945Z,6.98
2019-05-11T14:42:21.657Z,6.48
2019-05-11T14:47:23.687Z,6.11
2019-05-11T14:52:31.291Z,5.95
2019-05-11T14:57:39.640Z,6.12
2019-05-11T15:02:45.419Z,5.98
2019-05-11T15:07:53.172Z,5.73
2019-05-11T15:13:00.524Z,5.67
2019-05-11T15:18:08.522Z,5.53
2019-05-11T15:23:17.884Z,5.25
2019-05-11T15:28:22.840Z,5.19
2019-05-11T15:33:30.442Z,5.23
2019-05-11T15:38:42.740Z,4.83
2019-05-11T15:43:40.670Z,4.73
2019-05-11T15:48:56.686Z,4.77
2019-05-11T15:53:58.575Z,4.61
2019-05-11T15:59:04.410Z,4.61
2019-05-11T16:04:12.713Z,4.78
2019-05-11T16:09:21.018Z,4.72
2019-05-11T16:14:28.924Z,5.11
2019-05-11T16:19:38.079Z,5.62
2019-05-11T16:24:44.832Z,5.49
2019-05-11T16:29:52.708Z,5.17
2019-05-11T16:35:00.483Z,5.25
2019-05-11T16:40:08.607Z,5.14
2019-05-11T16:45:18.378Z,5.62
2019-05-11T16:50:24.095Z,5.56
2019-05-11T16:55:31.704Z,5.62
2019-05-11T17:00:42.259Z,5.49
2019-05-11T17:05:48.435Z,5.29
2019-05-11T17:10:55.721Z,5.86
2019-05-11T17:16:03.273Z,5.36
2019-05-11T17:21:12.152Z,5.32
2019-05-11T17:26:21.763Z,5.04
2019-05-11T17:31:29.539Z,5.01
2019-05-11T17:36:39.729Z,4.97
2019-05-11T17:41:38.625Z,5.11
2019-05-11T17:46:46.751Z,5.06
2019-05-11T17:51:55.798Z,5.12
2019-05-11T18:02:06.460Z,5.65
2019-05-11T18:07:26.104Z,5.85
2019-05-11T18:12:22.070Z,5.84
2019-05-11T18:17:32.405Z,5.74
2019-05-11T18:22:30.766Z,6.43
2019-05-11T18:27:39.064Z,6.69
2019-05-11T18:32:48.936Z,6.35
2019-05-11T18:37:55.411Z,6.24
2019-05-11T18:43:03.518Z,6.59
2019-05-11T18:48:12.345Z,6.43
2019-05-11T18:53:20.286Z,6.66
2019-05-11T18:58:28.077Z,6.73
2019-05-11T19:03:38.356Z,7.26
2019-05-11T19:08:44.366Z,7.08
2019-05-11T19:13:51.986Z,7.69
2019-05-11T19:19:00.290Z,7.32
2019-05-11T19:24:09.281Z,6.86
2019-05-11T19:29:15.049Z,6.95
2019-05-11T19:34:22.467Z,7.18
2019-05-11T19:39:30.236Z,7.61
2019-05-11T19:44:38.605Z,7.64
2019-05-11T19:49:47.988Z,7.86
2019-05-11T19:54:48.643Z,7.20
2019-05-11T19:59:53.367Z,6.43
2019-05-11T20:05:00.862Z,5.25
2019-05-11T20:10:09.278Z,4.62
2019-05-11T20:15:19.365Z,3.96
2019-05-11T20:20:19.765Z,3.33
2019-05-11T20:25:19.294Z,3.01
2019-05-11T20:30:25.564Z,3.12
2019-05-11T20:35:34.907Z,2.78
2019-05-11T20:40:43.827Z,2.66
2019-05-11T20:45:52.068Z,2.50
2019-05-11T20:51:00.811Z,2.59
2019-05-11T20:56:09.380Z,2.36
2019-05-11T21:01:17.884Z,2.35
2019-05-11T21:06:24.682Z,2.27
2019-05-11T21:11:32.672Z,2.20
2019-05-11T21:16:40.651Z,2.30
2019-05-11T21:21:52.793Z,2.21
2019-05-11T21:26:55.811Z,2.21
2019-05-11T21:32:03.954Z,2.06
2019-05-11T21:37:12.799Z,2.11
2019-05-11T21:42:20.715Z,2.10
2019-05-11T21:47:29.088Z,2.09
2019-05-11T21:52:38.423Z,2.22
2019-05-11T21:57:43.712Z,2.24
2019-05-11T22:02:51.575Z,2.15
2019-05-11T22:07:59.130Z,2.37
2019-05-11T22:13:07.353Z,2.15
2019-05-11T22:18:28.191Z,2.09
2019-05-11T22:23:22.805Z,2.12
2019-05-11T22:28:52.543Z,2.13
2019-05-11T22:33:39.910Z,2.31
2019-05-11T22:38:48.255Z,2.39
2019-05-11T22:43:56.325Z,1.99
2019-05-11T22:49:03.545Z,2.13
2019-05-11T22:54:11.291Z,2.30
2019-05-11T22:59:18.963Z,2.23
2019-05-11T23:04:28.744Z,2.42
2019-05-11T23:09:34.727Z,2.22
2019-05-11T23:14:42.627Z,2.30
2019-05-11T23:19:50.319Z,2.30
2019-05-11T23:24:58.806Z,2.49
2019-05-11T23:30:05.756Z,2.38
2019-05-11T23:35:13.147Z,2.33
2019-05-11T23:40:20.758Z,2.20
2019-05-11T23:45:28.375Z,2.34
2019-05-11T23:50:38.329Z,2.42
2019-05-11T23:55:43.268Z,2.32
